Terminal Aerodrome Forecast
Issued by NWS Shreveport, LA

Home | Current Version | Previous Version | Text Only | Print | Product List | Glossary On
Versions: 1 2 3 4 5 6 7 8 9 10 11 12 13
000
FTUS44 KSHV 011400 AAA
TAFMLU
TAF AMD
KMLU 011413Z 0114/0212 07004KT P6SM FEW006 BKN027 OVC035
      TEMPO 0114/0116 BKN004
     FM011600 07005KT 5SM -RA BR OVC010
     FM011800 05005KT P6SM VCTS BKN020CB
     FM020000 04004KT P6SM BKN025
     FM020900 03004KT 3SM BR OVC008=

USA.gov is the U.S. government's official web portal to all federal, state and local government web resources and services.